LUKK/KIV METAR and TAF weather

Enter ICAO airport designator
Station Type Date Time Source
LUKK METAR 2020/07/05 04:00 UTC NOAA

LUKK 050400Z 01007KT 9999 -SHRA FEW004 SCT020CB BKN049 20/19 Q1012 R08/290150 TEMPO 3000 BR BKN002


Station Type Date Time Source
LUKK Decoded METAR 2020/07/05 04:00 UTC NOAA

Chisinau International Airport, Moldova (LUKK) 46-55-40N 028-55-51E
Jul 05, 2020 - 12:00 AM EDT / 2020.07.05 0400 UTC
Wind: from the N (010 degrees) at 8 MPH (7 KT):0
Visibility: greater than 7 mile(s):0
Sky conditions: mostly cloudy
Weather: light rain showers; Cumulonimbus clouds observed
Temperature: 68 F (20 C)
Dew Point: 66 F (19 C)
Relative Humidity: 93%
Pressure (altimeter): 29.88 in. Hg (1012 hPa)
ob: LUKK 050400Z 01007KT 9999 -SHRA FEW004 SCT020CB BKN049 20/19 Q1012 R08/290150 TEMPO 3000 BR BKN002
cycle: 4

Station Type Date Time Source
LUKK TAF 2020/07/05 04:06 UTC NOAA

TAF
AMD LUKK 050400Z 0504/0524 36008KT 9999 BKN007
TEMPO 0504/0506 3000 BR BKN003 SCT015CB
BECMG 0506/0507 BKN020 PROB40
TEMPO 0512/0518 SCT040CB

Example: see airport list